createdAt,value
2022-12-17T00:01:08.108Z,55.20
2022-12-17T00:03:53.681Z,58.37
2022-12-17T00:06:44.277Z,60.10
2022-12-17T00:09:29.837Z,54.60
2022-12-17T00:12:15.550Z,57.47
2022-12-17T00:15:01.044Z,50.47
2022-12-17T00:17:46.789Z,51.93
2022-12-17T00:20:32.268Z,48.87
2022-12-17T00:23:19.986Z,46.40
2022-12-17T00:26:09.380Z,44.57
2022-12-17T00:28:55.371Z,42.10
2022-12-17T00:31:41.740Z,42.27
2022-12-17T00:34:27.399Z,41.03
2022-12-17T00:37:12.940Z,39.13
2022-12-17T00:40:00.011Z,38.63
2022-12-17T00:43:00.500Z,40.07
2022-12-17T00:45:46.078Z,39.93
2022-12-17T00:48:31.343Z,37.07
2022-12-17T00:51:16.781Z,36.83
2022-12-17T00:54:02.356Z,38.77
2022-12-17T00:56:49.404Z,36.83
2022-12-17T00:59:34.966Z,38.90
2022-12-17T01:02:20.821Z,38.80
2022-12-17T01:05:06.226Z,40.60
2022-12-17T01:07:52.567Z,38.67
2022-12-17T01:10:38.088Z,44.53
2022-12-17T01:13:25.165Z,43.43
2022-12-17T01:16:10.563Z,51.57
2022-12-17T01:18:56.297Z,44.67
2022-12-17T01:21:42.072Z,43.57
2022-12-17T01:24:27.850Z,42.50
2022-12-17T01:27:13.333Z,44.97
2022-12-17T01:30:00.265Z,46.17
2022-12-17T01:32:45.701Z,46.13
2022-12-17T01:35:31.214Z,44.50
2022-12-17T01:38:16.558Z,42.80
2022-12-17T01:41:02.401Z,42.27
2022-12-17T01:43:51.868Z,45.47
2022-12-17T01:46:40.130Z,39.70
2022-12-17T01:49:28.047Z,37.27
2022-12-17T01:52:14.205Z,37.97
2022-12-17T01:55:00.122Z,36.77
2022-12-17T01:57:45.800Z,39.40
2022-12-17T02:00:32.984Z,36.20
2022-12-17T02:03:20.317Z,35.13
2022-12-17T02:06:18.466Z,42.27
2022-12-17T02:09:11.715Z,34.43
2022-12-17T02:12:09.696Z,32.07
2022-12-17T02:15:03.111Z,38.73
2022-12-17T02:17:54.906Z,37.57
2022-12-17T02:20:48.711Z,32.77
2022-12-17T02:23:52.900Z,40.90
2022-12-17T02:26:49.178Z,32.63
2022-12-17T02:29:35.260Z,32.40
2022-12-17T02:32:21.687Z,32.77
2022-12-17T02:35:07.628Z,33.77
2022-12-17T02:37:52.900Z,35.43
2022-12-17T02:40:40.977Z,32.50
2022-12-17T02:43:30.223Z,32.67
2022-12-17T02:46:15.772Z,34.47
2022-12-17T02:49:01.772Z,33.30
2022-12-17T02:51:47.651Z,31.40
2022-12-17T02:54:32.996Z,35.73
2022-12-17T02:57:30.569Z,37.03
2022-12-17T03:00:17.476Z,29.93
2022-12-17T03:03:02.977Z,31.13
2022-12-17T03:05:48.351Z,36.57
2022-12-17T03:08:34.443Z,29.33
2022-12-17T03:11:19.869Z,27.87
2022-12-17T03:14:05.250Z,45.33
2022-12-17T03:17:07.142Z,32.17
2022-12-17T03:19:52.608Z,33.97
2022-12-17T03:22:37.908Z,25.43
2022-12-17T03:25:24.023Z,25.47
2022-12-17T03:28:09.485Z,25.53
2022-12-17T03:30:55.142Z,25.27
2022-12-17T03:33:42.242Z,28.07
2022-12-17T03:36:27.440Z,24.60
2022-12-17T03:39:13.046Z,32.00
2022-12-17T03:41:58.437Z,27.23
2022-12-17T03:44:44.055Z,32.97
2022-12-17T03:47:29.503Z,27.50
2022-12-17T03:50:16.408Z,39.93
2022-12-17T03:53:02.050Z,28.73
2022-12-17T03:55:47.575Z,26.83
2022-12-17T03:58:33.670Z,24.83
2022-12-17T04:01:19.581Z,26.10
2022-12-17T04:04:05.165Z,27.63
2022-12-17T04:06:52.352Z,27.67
2022-12-17T04:09:37.707Z,29.77
2022-12-17T04:12:23.296Z,25.83
2022-12-17T04:15:08.771Z,34.30
2022-12-17T04:17:54.303Z,26.73
2022-12-17T04:20:54.327Z,26.93
2022-12-17T04:23:41.123Z,25.80
2022-12-17T04:26:26.440Z,25.37
2022-12-17T04:29:11.867Z,37.97
2022-12-17T04:31:57.188Z,26.43
2022-12-17T04:34:42.677Z,30.37
2022-12-17T04:37:28.162Z,27.83
2022-12-17T04:40:15.034Z,29.33
2022-12-17T04:43:00.559Z,28.83
2022-12-17T04:45:46.389Z,30.70
2022-12-17T04:48:32.069Z,29.10
2022-12-17T04:51:17.429Z,30.23
2022-12-17T04:54:02.969Z,29.73
2022-12-17T04:56:50.004Z,33.10
2022-12-17T04:59:35.351Z,34.53
2022-12-17T05:02:20.750Z,35.57
2022-12-17T05:05:06.502Z,33.97
2022-12-17T05:07:52.102Z,33.97
2022-12-17T05:10:37.625Z,33.47
2022-12-17T05:13:24.597Z,34.63
2022-12-17T05:16:14.683Z,37.33
2022-12-17T05:19:00.344Z,39.33
2022-12-17T05:21:45.747Z,33.30
2022-12-17T05:24:31.123Z,55.90
2022-12-17T05:27:16.732Z,38.13
2022-12-17T05:30:03.720Z,36.53
2022-12-17T05:32:49.117Z,38.30
2022-12-17T05:35:34.907Z,36.17
2022-12-17T05:38:22.775Z,34.60
2022-12-17T05:41:08.671Z,33.53
2022-12-17T05:43:54.129Z,31.70
2022-12-17T05:46:41.033Z,29.93
2022-12-17T05:49:27.116Z,30.40
2022-12-17T05:52:12.342Z,29.50
2022-12-17T05:55:00.042Z,27.63
2022-12-17T05:57:46.010Z,31.70
2022-12-17T06:00:32.449Z,28.47
2022-12-17T06:03:21.606Z,31.37
2022-12-17T06:06:12.868Z,24.97
2022-12-17T06:08:58.945Z,28.27
2022-12-17T06:11:44.545Z,28.93
2022-12-17T06:14:30.204Z,37.03
2022-12-17T06:17:15.783Z,33.30
2022-12-17T06:20:08.040Z,35.17
2022-12-17T06:22:52.614Z,31.60
2022-12-17T06:25:37.898Z,30.53
2022-12-17T06:28:23.913Z,31.97
2022-12-17T06:31:10.047Z,32.37
2022-12-17T06:33:56.448Z,32.17
2022-12-17T06:36:45.994Z,31.63
2022-12-17T06:39:31.585Z,36.70
2022-12-17T06:42:17.130Z,32.53
2022-12-17T06:45:03.073Z,32.47
2022-12-17T06:47:48.568Z,31.73
2022-12-17T06:50:34.139Z,33.77
2022-12-17T06:53:23.437Z,31.33
2022-12-17T06:56:09.572Z,30.33
2022-12-17T06:58:55.048Z,30.87
2022-12-17T07:01:40.733Z,35.43
2022-12-17T07:04:26.530Z,29.03
2022-12-17T07:07:11.829Z,32.07
2022-12-17T07:10:14.077Z,33.97
2022-12-17T07:13:00.940Z,31.27
2022-12-17T07:15:46.504Z,29.70
2022-12-17T07:18:32.039Z,28.37
2022-12-17T07:21:17.680Z,30.17
2022-12-17T07:24:03.830Z,41.20
2022-12-17T07:26:51.606Z,29.47
2022-12-17T07:29:37.075Z,27.83
2022-12-17T07:32:23.314Z,26.60
2022-12-17T07:35:09.596Z,27.00
2022-12-17T07:37:55.232Z,27.70
2022-12-17T07:40:40.923Z,29.23
2022-12-17T07:43:30.964Z,29.87
2022-12-17T07:46:16.780Z,30.27
2022-12-17T07:49:03.178Z,33.23
2022-12-17T07:51:48.769Z,38.00
2022-12-17T07:54:34.187Z,31.07
2022-12-17T07:57:19.829Z,27.80
2022-12-17T08:00:07.023Z,30.17
2022-12-17T08:02:52.683Z,25.00
2022-12-17T08:05:38.299Z,30.17
2022-12-17T08:08:26.991Z,30.53
2022-12-17T08:11:12.486Z,30.63
2022-12-17T08:13:58.715Z,25.77
2022-12-17T08:16:45.756Z,28.20
2022-12-17T08:19:31.560Z,24.40
2022-12-17T08:22:17.065Z,24.43
2022-12-17T08:25:03.047Z,27.77
2022-12-17T08:27:49.472Z,31.27
2022-12-17T08:30:35.004Z,28.57
2022-12-17T08:33:25.508Z,27.17
2022-12-17T08:36:11.811Z,23.70
2022-12-17T08:38:57.257Z,23.97
2022-12-17T08:41:42.623Z,24.80
2022-12-17T08:44:28.183Z,23.57
2022-12-17T08:47:14.261Z,24.20
2022-12-17T08:50:01.354Z,27.10
2022-12-17T08:52:46.970Z,25.33
2022-12-17T08:55:32.406Z,27.43
2022-12-17T08:58:18.217Z,22.97
2022-12-17T09:01:04.370Z,26.07
2022-12-17T09:03:55.136Z,24.30
2022-12-17T09:06:42.161Z,23.73
2022-12-17T09:09:27.590Z,24.00
2022-12-17T09:12:13.026Z,22.57
2022-12-17T09:14:58.715Z,22.17
2022-12-17T09:17:44.202Z,24.63
2022-12-17T09:20:29.765Z,25.37
2022-12-17T09:23:17.070Z,27.13
2022-12-17T09:26:02.651Z,28.13
2022-12-17T09:28:48.177Z,29.50
2022-12-17T09:31:37.248Z,30.50
2022-12-17T09:34:23.229Z,31.70
2022-12-17T09:37:08.994Z,29.83
2022-12-17T09:39:56.654Z,28.97
2022-12-17T09:42:52.526Z,27.27
2022-12-17T09:45:46.419Z,26.20
2022-12-17T09:48:40.455Z,26.23
2022-12-17T09:51:39.693Z,26.63
2022-12-17T09:54:34.436Z,22.43
2022-12-17T09:57:21.815Z,23.27
2022-12-17T10:00:07.299Z,24.90
2022-12-17T10:02:53.502Z,23.80
2022-12-17T10:05:44.458Z,23.40
2022-12-17T10:08:33.590Z,27.30
2022-12-17T10:11:34.413Z,26.17
2022-12-17T10:14:23.274Z,24.63
2022-12-17T10:17:12.013Z,23.03
2022-12-17T10:20:00.402Z,22.60
2022-12-17T10:22:46.313Z,21.57
2022-12-17T10:25:36.200Z,22.17
2022-12-17T10:28:25.236Z,23.57
2022-12-17T10:31:12.192Z,23.97
2022-12-17T10:33:59.456Z,23.57
2022-12-17T10:36:46.820Z,23.30
2022-12-17T10:39:35.277Z,21.10
2022-12-17T10:42:21.396Z,20.83
2022-12-17T10:45:06.887Z,23.10
2022-12-17T10:47:53.850Z,22.17
2022-12-17T10:50:41.537Z,22.40
2022-12-17T10:53:37.565Z,21.63
2022-12-17T10:56:24.158Z,20.27
2022-12-17T10:59:11.859Z,21.17
2022-12-17T11:01:58.890Z,25.57
2022-12-17T11:04:48.415Z,22.40
2022-12-17T11:07:37.868Z,19.37
2022-12-17T11:10:31.875Z,20.13
2022-12-17T11:13:21.609Z,19.63
2022-12-17T11:16:09.259Z,19.57
2022-12-17T11:19:03.780Z,17.87
2022-12-17T11:21:54.980Z,18.87
2022-12-17T11:24:46.392Z,20.67
2022-12-17T11:27:36.922Z,19.87
2022-12-17T11:30:31.099Z,20.83
2022-12-17T11:33:28.342Z,19.63
2022-12-17T11:36:24.274Z,20.63
2022-12-17T11:39:23.497Z,20.67
2022-12-17T11:42:18.245Z,18.47
2022-12-17T11:45:14.368Z,19.17
2022-12-17T11:48:07.316Z,19.13
2022-12-17T11:51:02.233Z,21.93
2022-12-17T11:54:05.366Z,18.70
2022-12-17T11:56:57.420Z,19.00
2022-12-17T11:59:52.891Z,20.63
2022-12-17T12:02:57.878Z,21.97
2022-12-17T12:05:56.729Z,20.67
2022-12-17T12:08:45.335Z,23.27
2022-12-17T12:11:44.631Z,22.63
2022-12-17T12:14:47.011Z,21.77
2022-12-17T12:17:50.116Z,23.53
2022-12-17T12:20:52.732Z,25.07
2022-12-17T12:23:49.848Z,23.70
2022-12-17T12:26:39.756Z,24.87
2022-12-17T12:29:38.731Z,24.20
2022-12-17T12:32:31.392Z,24.53
2022-12-17T12:35:20.390Z,23.70
2022-12-17T12:38:05.842Z,22.83
2022-12-17T12:40:57.340Z,23.23
2022-12-17T12:44:02.320Z,22.53
2022-12-17T12:46:56.282Z,22.47
2022-12-17T12:49:47.577Z,23.33
2022-12-17T12:52:38.553Z,22.03
2022-12-17T12:55:39.648Z,24.17
2022-12-17T12:58:43.000Z,23.73
2022-12-17T13:01:29.156Z,22.93
2022-12-17T13:04:21.805Z,23.67
2022-12-17T13:06:54.217Z,21.47
2022-12-17T13:09:47.895Z,21.27
2022-12-17T13:12:27.987Z,19.40
2022-12-17T13:15:03.906Z,21.67
2022-12-17T13:17:36.721Z,20.33
2022-12-17T13:20:25.382Z,21.37
2022-12-17T13:22:55.401Z,23.57
2022-12-17T13:25:24.644Z,21.90
2022-12-17T13:27:52.752Z,22.07
2022-12-17T13:30:25.006Z,21.60
2022-12-17T13:33:05.005Z,22.37
2022-12-17T13:35:42.807Z,20.23
2022-12-17T13:38:21.695Z,21.53
2022-12-17T13:41:09.350Z,22.33
2022-12-17T13:43:43.472Z,21.70
2022-12-17T13:46:20.650Z,19.87
2022-12-17T13:48:59.215Z,18.60
2022-12-17T13:51:30.536Z,19.27
2022-12-17T13:54:01.674Z,20.03
2022-12-17T13:56:33.030Z,22.50
2022-12-17T13:59:08.734Z,24.47
2022-12-17T14:01:46.666Z,25.30
2022-12-17T14:04:22.548Z,25.47
2022-12-17T14:06:53.075Z,25.53
2022-12-17T14:09:23.769Z,27.63
2022-12-17T14:12:09.634Z,27.07
2022-12-17T14:14:40.444Z,32.13
2022-12-17T14:17:17.910Z,53.33
2022-12-17T14:19:46.209Z,34.77
2022-12-17T14:22:20.850Z,31.93
2022-12-17T14:24:49.157Z,34.93
2022-12-17T14:27:26.057Z,32.67
2022-12-17T14:29:54.465Z,36.23
2022-12-17T14:32:27.295Z,35.73
2022-12-17T14:35:00.455Z,34.50
2022-12-17T14:37:31.868Z,55.97
2022-12-17T14:40:04.266Z,50.97
2022-12-17T14:42:38.431Z,45.47
2022-12-17T14:45:22.038Z,36.33
2022-12-17T14:47:55.559Z,35.80
2022-12-17T14:50:33.359Z,34.20
2022-12-17T14:53:07.440Z,35.90
2022-12-17T14:55:38.514Z,41.23
2022-12-17T14:58:25.001Z,47.63
2022-12-17T15:00:57.123Z,49.77
2022-12-17T15:03:28.276Z,47.53
2022-12-17T15:05:59.755Z,40.13
2022-12-17T15:08:32.789Z,35.30
2022-12-17T15:11:00.798Z,34.73
2022-12-17T15:13:28.969Z,33.23
2022-12-17T15:15:57.701Z,32.20
2022-12-17T15:18:26.076Z,30.97
2022-12-17T15:20:54.789Z,29.57
2022-12-17T15:23:24.338Z,32.67
2022-12-17T15:25:56.122Z,33.70
2022-12-17T15:28:28.380Z,31.40
2022-12-17T15:30:56.863Z,34.67
2022-12-17T15:33:25.306Z,34.83
2022-12-17T15:35:53.519Z,36.17
2022-12-17T15:38:21.625Z,35.63
2022-12-17T15:40:49.718Z,35.50
2022-12-17T15:43:18.275Z,36.20
2022-12-17T15:45:47.750Z,38.53
2022-12-17T15:48:17.968Z,40.10
2022-12-17T15:50:46.125Z,48.67
2022-12-17T15:53:14.204Z,50.30
2022-12-17T15:55:43.001Z,50.23
2022-12-17T15:58:11.773Z,43.30
2022-12-17T16:00:41.211Z,41.70
2022-12-17T16:03:09.528Z,43.30
2022-12-17T16:05:37.775Z,41.87
2022-12-17T16:08:06.214Z,45.83
2022-12-17T16:10:34.623Z,39.77
2022-12-17T16:13:02.700Z,39.43
2022-12-17T16:15:31.155Z,40.27
2022-12-17T16:18:01.542Z,35.67
2022-12-17T16:20:29.938Z,37.63
2022-12-17T16:22:58.210Z,34.07
2022-12-17T16:25:26.334Z,33.67
2022-12-17T16:27:54.574Z,56.90
2022-12-17T16:30:22.675Z,44.97
2022-12-17T16:32:50.981Z,36.93
2022-12-17T16:35:20.602Z,36.43
2022-12-17T16:37:48.735Z,42.77
2022-12-17T16:40:16.847Z,41.27
2022-12-17T16:42:44.869Z,44.80
2022-12-17T16:45:13.008Z,43.27
2022-12-17T16:47:41.135Z,45.50
2022-12-17T16:50:09.558Z,45.57
2022-12-17T16:52:39.186Z,42.10
2022-12-17T16:55:07.880Z,46.60
2022-12-17T16:57:35.992Z,46.97
2022-12-17T17:00:04.578Z,47.47
2022-12-17T17:02:34.054Z,53.47
2022-12-17T17:05:02.738Z,54.20
2022-12-17T17:07:31.095Z,51.03
2022-12-17T17:10:00.571Z,54.63
2022-12-17T17:12:29.519Z,54.00
2022-12-17T17:14:58.054Z,53.00
2022-12-17T17:17:55.640Z,51.93
2022-12-17T17:20:15.384Z,51.80
2022-12-17T17:22:44.084Z,51.73
2022-12-17T17:25:13.661Z,51.17
2022-12-17T17:27:41.738Z,49.93
2022-12-17T17:30:11.296Z,47.50
2022-12-17T17:32:39.368Z,47.20
2022-12-17T17:35:08.672Z,48.70
2022-12-17T17:37:36.986Z,47.37
2022-12-17T17:40:05.995Z,49.73
2022-12-17T17:42:36.409Z,50.07
2022-12-17T17:45:04.725Z,49.77
2022-12-17T17:47:33.465Z,48.30
2022-12-17T17:50:03.831Z,46.47
2022-12-17T17:52:32.436Z,49.17
2022-12-17T17:55:00.750Z,54.30
2022-12-17T17:57:29.183Z,53.77
2022-12-17T17:59:58.928Z,55.77
2022-12-17T18:02:27.100Z,56.77
2022-12-17T18:04:55.519Z,64.07
2022-12-17T18:07:26.144Z,63.47
2022-12-17T18:09:55.409Z,68.40
2022-12-17T18:12:49.749Z,61.83
2022-12-17T18:15:19.602Z,64.53
2022-12-17T18:17:51.549Z,50.83
2022-12-17T18:20:20.147Z,43.57
2022-12-17T18:22:48.391Z,43.67
2022-12-17T18:25:17.832Z,49.73
2022-12-17T18:27:46.310Z,49.80
2022-12-17T18:30:16.497Z,92.13
2022-12-17T18:32:46.434Z,44.20
2022-12-17T18:35:14.503Z,53.27
2022-12-17T18:37:42.880Z,70.27
2022-12-17T18:40:11.805Z,93.43
2022-12-17T18:42:57.284Z,82.70
2022-12-17T18:45:25.400Z,74.93
2022-12-17T18:47:54.985Z,73.43
2022-12-17T18:50:23.143Z,71.00
2022-12-17T18:52:51.409Z,69.07
2022-12-17T18:55:19.745Z,63.37
2022-12-17T18:57:47.890Z,64.10
2022-12-17T19:00:17.218Z,69.20
2022-12-17T19:02:45.700Z,67.90
2022-12-17T19:05:15.832Z,64.07
2022-12-17T19:07:44.028Z,62.43
2022-12-17T19:10:12.293Z,66.47
2022-12-17T19:12:40.585Z,68.80
2022-12-17T19:15:09.904Z,70.80
2022-12-17T19:17:37.881Z,71.03
2022-12-17T19:20:06.777Z,71.03
2022-12-17T19:22:36.316Z,68.90
2022-12-17T19:25:04.715Z,72.50
2022-12-17T19:27:32.944Z,67.77
2022-12-17T19:30:01.501Z,66.03
2022-12-17T19:32:29.776Z,65.50
2022-12-17T19:34:59.432Z,63.50
2022-12-17T19:37:27.698Z,67.20
2022-12-17T19:39:57.232Z,65.50
2022-12-17T19:42:35.157Z,70.47
2022-12-17T19:45:05.474Z,68.20
2022-12-17T19:47:33.702Z,70.13
2022-12-17T19:50:01.763Z,67.60
2022-12-17T19:52:31.207Z,60.17
2022-12-17T19:55:00.812Z,61.63
2022-12-17T19:57:29.001Z,65.50
2022-12-17T19:59:57.103Z,64.60
2022-12-17T20:02:31.019Z,68.50
2022-12-17T20:05:00.929Z,61.07
2022-12-17T20:07:29.066Z,56.40
2022-12-17T20:09:57.175Z,60.67
2022-12-17T20:12:26.815Z,59.63
2022-12-17T20:14:55.348Z,60.77
2022-12-17T20:17:24.900Z,72.40
2022-12-17T20:19:53.931Z,77.77
2022-12-17T20:22:23.509Z,56.97
2022-12-17T20:24:53.184Z,53.50
2022-12-17T20:27:21.275Z,60.07
2022-12-17T20:29:50.818Z,58.87
2022-12-17T20:32:21.355Z,56.43
2022-12-17T20:34:49.558Z,74.77
2022-12-17T20:37:17.763Z,58.33
2022-12-17T20:39:45.774Z,55.93
2022-12-17T20:42:13.956Z,54.47
2022-12-17T20:44:42.926Z,54.60
2022-12-17T20:47:12.422Z,51.50
2022-12-17T20:49:40.970Z,53.63
2022-12-17T20:52:09.258Z,69.70
2022-12-17T20:54:37.369Z,46.77
2022-12-17T20:57:05.732Z,43.93
2022-12-17T20:59:33.817Z,47.07
2022-12-17T21:02:01.979Z,50.83
2022-12-17T21:04:31.792Z,76.00
2022-12-17T21:07:00.102Z,63.17
2022-12-17T21:09:29.404Z,67.23
2022-12-17T21:11:57.608Z,54.43
2022-12-17T21:14:29.175Z,58.17
2022-12-17T21:17:00.345Z,73.20
2022-12-17T21:19:28.525Z,66.57
2022-12-17T21:21:58.255Z,73.77
2022-12-17T21:24:26.393Z,71.63
2022-12-17T21:26:57.442Z,95.47
2022-12-17T21:29:25.967Z,57.57
2022-12-17T21:31:54.210Z,55.63
2022-12-17T21:34:25.239Z,51.43
2022-12-17T21:36:53.778Z,55.87
2022-12-17T21:39:23.227Z,63.87
2022-12-17T21:42:05.170Z,52.57
2022-12-17T21:44:33.365Z,59.70
2022-12-17T21:47:02.241Z,66.47
2022-12-17T21:49:30.664Z,99.33
2022-12-17T21:52:00.476Z,59.93
2022-12-17T21:54:30.577Z,60.60
2022-12-17T21:56:58.630Z,63.30
2022-12-17T21:59:26.708Z,61.07
2022-12-17T22:01:57.447Z,54.60
2022-12-17T22:04:26.840Z,49.97
2022-12-17T22:07:05.582Z,51.10
2022-12-17T22:09:52.839Z,48.60
2022-12-17T22:12:48.764Z,45.97
2022-12-17T22:15:17.020Z,44.97
2022-12-17T22:17:47.162Z,43.17
2022-12-17T22:20:16.294Z,43.47
2022-12-17T22:22:45.512Z,50.77
2022-12-17T22:25:15.275Z,53.40
2022-12-17T22:27:43.994Z,67.60
2022-12-17T22:30:33.662Z,57.20
2022-12-17T22:33:09.410Z,50.17
2022-12-17T22:37:37.663Z,50.07
2022-12-17T22:44:12.735Z,47.43
2022-12-17T22:44:36.241Z,42.27
2022-12-17T22:44:51.257Z,40.03
2022-12-17T22:47:20.954Z,39.67
2022-12-17T22:49:48.971Z,39.67
2022-12-17T22:52:19.788Z,37.20
2022-12-17T22:54:48.552Z,39.47
2022-12-17T22:57:37.661Z,42.93
2022-12-17T23:00:15.978Z,47.83
2022-12-17T23:02:44.288Z,44.13
2022-12-17T23:05:12.408Z,39.93
2022-12-17T23:07:40.624Z,40.60
2022-12-17T23:10:09.319Z,37.90
2022-12-17T23:12:54.405Z,45.87
2022-12-17T23:15:26.649Z,42.43
2022-12-17T23:17:56.942Z,42.00
2022-12-17T23:20:26.115Z,41.73
2022-12-17T23:22:54.342Z,43.93
2022-12-17T23:25:22.600Z,44.10
2022-12-17T23:27:52.414Z,45.90
2022-12-17T23:30:20.971Z,47.67
2022-12-17T23:32:49.165Z,44.30
2022-12-17T23:35:17.240Z,46.63
2022-12-17T23:37:45.259Z,49.10
2022-12-17T23:40:14.555Z,50.43
2022-12-17T23:42:43.117Z,50.23
2022-12-17T23:45:12.599Z,49.93
2022-12-17T23:47:41.142Z,50.80
2022-12-17T23:50:11.566Z,48.63
2022-12-17T23:52:40.568Z,48.53
2022-12-17T23:55:09.152Z,51.77
2022-12-17T23:57:37.203Z,47.83
